Time;durP1;ratioP1;P1;durP2;ratioP2;P2;SDS_P1;SDS_P2;PMS_P1;PMS_P2;Temp;Humidity;BMP_temperature;BMP_pressure;BME280_temperature;BME280_humidity;BME280_pressure;Samples;Min_cycle;Max_cycle;Signal;HPM_P1;HPM_P2
2021/06/16 00:06:52;;;;;;;11.20;9.50;;;;;;;19.02;61.13;99642.00;517061;1087;116349;-66
2021/06/16 00:16:58;;;;;;;10.90;8.87;;;;;;;18.97;61.38;99643.41;532603;1090;116526;-66
2021/06/16 00:27:06;;;;;;;12.53;9.07;;;;;;;18.90;62.15;99657.30;530516;1087;116698;-67
2021/06/16 00:37:13;;;;;;;11.53;10.00;;;;;;;18.73;62.68;99653.64;532498;1087;116700;-66
2021/06/16 00:47:20;;;;;;;13.47;10.43;;;;;;;18.53;63.21;99657.42;532553;1087;118056;-65
2021/06/16 00:57:27;;;;;;;13.53;10.70;;;;;;;18.28;63.94;99655.30;531868;1088;118339;-66
2021/06/16 01:07:39;;;;;;;13.80;12.37;;;;;;;18.04;64.61;99669.08;530194;1088;117121;-65
2021/06/16 01:17:49;;;;;;;18.43;11.17;;;;;;;17.91;65.37;99672.05;531836;1087;117703;-65
2021/06/16 01:27:57;;;;;;;13.20;11.10;;;;;;;17.70;65.98;99673.06;532556;1087;117630;-66
2021/06/16 01:38:05;;;;;;;15.60;13.90;;;;;;;17.52;66.64;99670.30;532539;1087;117359;-66
2021/06/16 01:48:13;;;;;;;;;;;;;;;17.22;67.53;99666.81;531864;1087;117117;-66
2021/06/16 01:58:21;;;;;;;14.83;13.33;;;;;;;16.96;67.98;99680.59;532899;1087;102917;-66
2021/06/16 02:08:32;;;;;;;14.83;13.33;;;;;;;16.70;69.00;99675.81;532562;1087;116753;-66
2021/06/16 02:18:45;;;;;;;17.53;13.83;;;;;;;16.48;70.01;99688.30;529413;1087;117553;-66
2021/06/16 02:28:52;;;;;;;16.47;14.77;;;;;;;16.26;71.06;99678.72;515067;1087;116748;-65
2021/06/16 02:39:03;;;;;;;19.43;15.07;;;;;;;16.08;71.94;99694.39;525468;1088;116539;-66
2021/06/16 02:49:11;;;;;;;20.13;16.93;;;;;;;16.08;72.50;99699.69;532525;1086;117358;-66
2021/06/16 02:59:19;;;;;;;22.93;17.90;;;;;;;16.17;73.06;99712.16;532635;1087;117003;-66
2021/06/16 03:09:27;;;;;;;18.35;16.05;;;;;;;16.14;73.12;99727.46;531464;1087;117079;-67
2021/06/16 03:19:35;;;;;;;16.88;15.15;;;;;;;16.10;73.18;99740.13;523552;1087;116868;-66
2021/06/16 03:29:42;;;;;;;18.67;16.77;;;;;;;16.01;73.08;99739.11;527744;1087;116181;-66
2021/06/16 03:39:52;;;;;;;17.05;15.13;;;;;;;15.93;73.47;99750.34;519906;1085;116706;-65
2021/06/16 03:50:01;;;;;;;15.83;14.07;;;;;;;15.63;73.72;99765.14;532559;1087;116637;-67
2021/06/16 04:00:08;;;;;;;;;;;;;;;15.63;73.70;99766.96;531829;1086;116451;-67
2021/06/16 04:10:15;;;;;;;14.03;12.13;;;;;;;15.57;73.23;99788.63;532817;1087;102420;-66
2021/06/16 04:20:23;;;;;;;16.25;10.10;;;;;;;16.90;73.31;99789.86;529232;1087;117009;-66
2021/06/16 04:30:29;;;;;;;10.77;7.83;;;;;;;19.62;68.27;99787.94;531709;1087;116623;-66
2021/06/16 04:40:36;;;;;;;9.83;5.47;;;;;;;25.21;59.75;99770.30;532390;1088;116764;-66
2021/06/16 04:50:43;;;;;;;10.23;5.33;;;;;;;28.05;50.84;99770.76;520729;1087;116289;-67
2021/06/16 05:00:49;;;;;;;6.50;4.13;;;;;;;28.62;44.84;99770.24;522789;1088;116205;-67
2021/06/16 05:10:56;;;;;;;4.08;3.48;;;;;;;28.00;41.86;99778.66;529867;1088;116381;-67
2021/06/16 05:21:04;;;;;;;7.43;3.60;;;;;;;24.75;42.56;99791.02;520309;1089;115834;-65
2021/06/16 05:31:10;;;;;;;5.87;2.80;;;;;;;27.38;43.37;99782.33;523250;1088;116335;-59
2021/06/16 05:41:17;;;;;;;5.00;3.20;;;;;;;33.18;36.80;99785.63;528618;1090;116135;-58
2021/06/16 05:51:24;;;;;;;3.20;2.90;;;;;;;34.70;31.93;99795.89;530914;1090;117292;-60
2021/06/16 06:01:31;;;;;;;6.48;2.73;;;;;;;39.26;26.02;99790.88;531752;1087;116108;-60
2021/06/16 06:11:38;;;;;;;5.15;2.95;;;;;;;39.96;25.28;99796.37;526023;1089;116324;-60
2021/06/16 06:21:45;;;;;;;3.40;2.75;;;;;;;41.74;22.94;99795.34;527636;1087;115666;-62
2021/06/16 06:31:51;;;;;;;6.97;3.37;;;;;;;43.45;20.72;99795.66;532444;1087;116300;-61
2021/06/16 06:41:58;;;;;;;4.28;2.80;;;;;;;46.64;18.22;99798.97;531841;1087;118043;-61
2021/06/16 06:52:05;;;;;;;5.50;4.10;;;;;;;48.28;16.71;99793.51;532460;1087;117271;-61
2021/06/16 07:02:12;;;;;;;4.95;4.00;;;;;;;49.92;14.43;99785.77;532515;1087;116401;-60
2021/06/16 07:12:19;;;;;;;8.98;5.00;;;;;;;49.63;14.69;99782.23;531788;1087;116159;-64
2021/06/16 07:22:24;;;;;;;;;;;;;;;50.07;13.47;99789.71;532391;1090;116613;-65
2021/06/16 07:32:30;;;;;;;5.03;4.55;;;;;;;48.94;14.01;99788.75;515002;1087;102723;-65
2021/06/16 07:42:37;;;;;;;4.73;3.40;;;;;;;49.47;13.14;99801.75;532518;1087;116351;-61
2021/06/16 07:52:44;;;;;;;5.13;4.40;;;;;;;42.42;15.78;99791.30;521467;1087;116503;-59
2021/06/16 08:02:51;;;;;;;7.47;3.90;;;;;;;36.01;20.00;99796.88;520165;1087;116526;-59
2021/06/16 08:12:59;;;;;;;7.93;4.25;;;;;;;32.92;23.93;99801.48;530604;1087;116478;-62
2021/06/16 08:23:07;;;;;;;5.40;3.73;;;;;;;31.18;25.93;99817.74;516752;1087;116351;-60
2021/06/16 08:33:13;;;;;;;5.63;3.93;;;;;;;29.54;28.78;99834.09;527124;1087;116336;-60
2021/06/16 08:43:20;;;;;;;5.30;4.40;;;;;;;28.90;30.54;99836.66;523496;1087;116394;-60
2021/06/16 08:53:27;;;;;;;6.23;4.83;;;;;;;28.36;31.75;99845.70;530195;1089;116133;-61
2021/06/16 09:03:34;;;;;;;6.18;5.28;;;;;;;28.04;32.81;99848.17;531840;1088;115972;-61
2021/06/16 09:13:41;;;;;;;6.83;4.90;;;;;;;27.50;34.12;99840.01;523968;1087;116344;-60
2021/06/16 09:23:48;;;;;;;9.95;5.88;;;;;;;27.87;34.29;99847.75;530408;1085;116406;-60
2021/06/16 09:33:56;;;;;;;5.98;5.30;;;;;;;27.61;34.13;99840.48;532619;1087;116413;-60
2021/06/16 09:44:02;;;;;;;7.33;5.87;;;;;;;27.35;34.66;99839.33;532666;1086;116165;-61
2021/06/16 09:54:14;;;;;;;8.83;5.15;;;;;;;27.30;36.02;99839.12;531838;1087;116133;-61
2021/06/16 10:04:40;;;;;;;7.20;5.60;;;;;;;27.37;35.83;99846.19;532640;1087;115890;-61
2021/06/16 10:14:47;;;;;;;7.33;6.23;;;;;;;27.31;35.83;99841.63;531854;1087;116060;-61
2021/06/16 10:24:53;;;;;;;10.75;5.88;;;;;;;27.51;35.90;99838.97;532595;1087;116495;-60
2021/06/16 10:35:02;;;;;;;8.07;5.83;;;;;;;26.87;36.33;99841.02;524763;1088;116705;-60
2021/06/16 10:45:21;;;;;;;6.03;5.13;;;;;;;26.99;36.48;99831.33;531670;1089;116713;-60
2021/06/16 10:55:48;;;;;;;9.20;5.50;;;;;;;26.55;36.90;99846.00;529066;1089;116630;-60
2021/06/16 11:05:55;;;;;;;7.13;6.40;;;;;;;26.72;36.94;99839.26;518800;1087;116016;-61
2021/06/16 11:16:01;;;;;;;7.77;6.93;;;;;;;26.91;36.87;99831.52;532563;1086;115940;-60
2021/06/16 11:26:08;;;;;;;6.77;5.77;;;;;;;26.97;36.96;99828.01;532437;1087;116104;-64
2021/06/16 11:36:27;;;;;;;7.53;5.70;;;;;;;26.81;37.41;99826.45;531749;1088;116570;-60
2021/06/16 11:46:36;;;;;;;9.10;6.15;;;;;;;26.98;37.16;99818.08;520487;1087;116393;-59
2021/06/16 11:56:44;;;;;;;10.97;5.70;;;;;;;27.18;37.35;99817.30;527538;1087;117057;-58
2021/06/16 12:06:58;;;;;;;8.28;5.43;;;;;;;27.27;37.04;99803.45;522367;1087;116774;-58
2021/06/16 12:17:07;;;;;;;6.07;5.57;;;;;;;27.31;36.96;99803.04;532707;1087;116509;-58
2021/06/16 12:27:16;;;;;;;6.10;5.50;;;;;;;27.87;36.42;99788.39;531799;1087;116196;-59
2021/06/16 12:37:22;;;;;;;6.77;4.67;;;;;;;27.49;36.28;99773.64;527230;1088;116211;-58
2021/06/16 12:47:33;;;;;;;11.85;4.98;;;;;;;27.30;36.59;99774.42;526172;1085;115776;-58
2021/06/16 12:57:48;;;;;;;6.77;5.00;;;;;;;27.60;36.02;99764.13;520577;1087;116503;-58
2021/06/16 13:07:57;;;;;;;6.57;4.77;;;;;;;27.67;36.06;99753.34;516009;1087;116184;-59
2021/06/16 13:18:06;;;;;;;4.90;4.17;;;;;;;27.50;36.37;99750.19;529978;1087;116347;-59
2021/06/16 13:28:24;;;;;;;7.73;5.17;;;;;;;27.14;36.60;99744.14;532610;1087;115891;-59
2021/06/16 13:38:31;;;;;;;6.07;3.57;;;;;;;26.93;37.20;99745.09;532526;1086;116408;-60
2021/06/16 13:48:38;;;;;;;6.18;4.38;;;;;;;27.25;36.63;99738.14;532531;1086;115966;-60
2021/06/16 13:58:44;;;;;;;9.53;4.13;;;;;;;27.19;36.52;99735.44;526569;1087;116210;-59
2021/06/16 14:08:51;;;;;;;5.48;3.65;;;;;;;26.80;36.72;99733.22;513990;1087;116611;-58
2021/06/16 14:18:58;;;;;;;5.98;4.03;;;;;;;26.63;37.17;99726.53;532194;1088;116619;-59
2021/06/16 14:29:05;;;;;;;7.00;4.65;;;;;;;26.61;37.51;99721.34;532575;1088;117123;-59
2021/06/16 14:39:14;;;;;;;4.63;4.20;;;;;;;25.91;38.41;99722.16;531757;1089;116423;-59
2021/06/16 14:49:21;;;;;;;6.13;3.97;;;;;;;25.39;39.43;99711.59;532553;1087;116533;-59
2021/06/16 14:59:29;;;;;;;6.53;4.20;;;;;;;25.29;39.40;99703.86;532424;1087;116146;-63
2021/06/16 15:09:35;;;;;;;7.87;4.40;;;;;;;25.54;39.21;99702.64;519242;1088;116501;-62
2021/06/16 15:19:44;;;;;;;4.65;4.35;;;;;;;25.78;39.16;99700.55;514820;1087;115946;-59
2021/06/16 15:29:51;;;;;;;4.47;3.50;;;;;;;25.81;39.68;99698.30;531707;1087;116429;-59
2021/06/16 15:40:00;;;;;;;7.38;3.83;;;;;;;25.63;39.52;99693.41;532393;1087;116374;-61
2021/06/16 15:50:09;;;;;;;4.47;3.50;;;;;;;25.28;39.88;99693.30;514433;1087;10001443;-62
2021/06/16 16:00:17;;;;;;;4.37;3.93;;;;;;;24.92;40.63;99694.19;531699;1085;116506;-62
2021/06/16 16:10:24;;;;;;;5.70;5.20;;;;;;;24.74;41.06;99695.39;521014;1089;116096;-61
2021/06/16 16:20:31;;;;;;;5.47;4.83;;;;;;;24.48;41.10;99692.22;514758;1088;115944;-62
2021/06/16 16:30:40;;;;;;;5.55;3.80;;;;;;;24.41;41.89;99702.03;532474;1089;116302;-61
2021/06/16 16:40:47;;;;;;;7.55;4.08;;;;;;;24.31;41.93;99688.06;532099;1087;117086;-63
2021/06/16 16:50:52;;;;;;;;;;;;;;;24.34;42.08;99693.05;531643;1089;115895;-60
2021/06/16 17:00:59;;;;;;;4.45;4.05;;;;;;;24.34;42.28;99685.84;532642;1087;102975;-61
2021/06/16 17:11:06;;;;;;;4.40;3.97;;;;;;;24.27;42.19;99690.28;524260;1087;116465;-61
2021/06/16 17:21:14;;;;;;;4.60;3.40;;;;;;;24.19;42.28;99696.58;519777;1087;115827;-61
2021/06/16 17:31:20;;;;;;;7.73;3.95;;;;;;;24.03;42.40;99702.10;528194;1087;116272;-61
2021/06/16 17:41:28;;;;;;;5.03;3.87;;;;;;;23.73;43.20;99708.26;525134;1087;116041;-62
2021/06/16 17:51:34;;;;;;;4.60;4.03;;;;;;;23.81;43.70;99718.06;523041;1090;117256;-60
2021/06/16 18:01:43;;;;;;;5.40;3.40;;;;;;;24.02;42.94;99727.26;529602;1087;116519;-60
2021/06/16 18:11:48;;;;;;;;;;;;;;;23.45;43.69;99716.86;519730;1087;116251;-62
2021/06/16 18:21:54;;;;;;;5.17;3.40;;;;;;;23.08;44.22;99724.61;521335;1086;102475;-61
2021/06/16 18:32:01;;;;;;;3.50;3.20;;;;;;;22.65;44.79;99738.39;516521;1087;116305;-60
2021/06/16 18:42:10;;;;;;;5.83;4.13;;;;;;;22.18;45.32;99750.73;526887;1087;116148;-60
2021/06/16 18:52:15;;;;;;;;;;;;;;;21.87;46.22;99753.27;532490;1087;116426;-60
2021/06/16 19:02:24;;;;;;;8.10;3.33;;;;;;;21.69;46.54;99762.30;517558;1087;102457;-60
2021/06/16 19:12:31;;;;;;;5.10;3.30;;;;;;;21.51;46.98;99773.13;519856;1087;116845;-61
2021/06/16 19:22:39;;;;;;;5.20;3.40;;;;;;;21.24;47.33;99780.43;514578;1087;116161;-60
2021/06/16 19:32:47;;;;;;;7.08;3.33;;;;;;;20.83;47.98;99784.63;523670;1087;116335;-61
2021/06/16 19:42:55;;;;;;;4.47;3.13;;;;;;;20.54;49.03;99792.97;514537;1087;117011;-61
2021/06/16 19:53:01;;;;;;;5.83;3.80;;;;;;;20.27;49.07;99798.30;518939;1088;115876;-60
2021/06/16 20:03:08;;;;;;;5.80;2.97;;;;;;;20.09;49.29;99794.86;517354;1087;116260;-61
2021/06/16 20:13:16;;;;;;;5.70;3.27;;;;;;;19.89;49.86;99803.82;520532;1087;116044;-62
2021/06/16 20:23:23;;;;;;;6.73;4.08;;;;;;;19.75;50.35;99804.38;522959;1087;117429;-60
2021/06/16 20:33:31;;;;;;;4.90;3.83;;;;;;;19.59;51.22;99818.38;531446;1088;116852;-61
2021/06/16 20:43:38;;;;;;;4.98;3.93;;;;;;;19.45;51.21;99809.11;527334;1087;116338;-61
2021/06/16 20:53:45;;;;;;;7.90;4.55;;;;;;;19.29;51.15;99818.58;526090;1087;116893;-60
2021/06/16 21:03:52;;;;;;;5.47;4.07;;;;;;;19.15;51.74;99825.23;526136;1087;116328;-60
2021/06/16 21:14:00;;;;;;;5.00;4.13;;;;;;;19.09;52.07;99835.63;521718;1087;116070;-67
2021/06/16 21:24:07;;;;;;;5.40;3.63;;;;;;;19.01;52.97;99828.39;526200;1085;117835;-62
2021/06/16 21:34:14;;;;;;;3.28;2.98;;;;;;;19.17;52.95;99843.72;514997;1087;115808;-62
2021/06/16 21:44:21;;;;;;;9.10;4.37;;;;;;;19.11;53.21;99839.83;515584;1087;116026;-64
2021/06/16 21:54:28;;;;;;;6.43;4.17;;;;;;;18.95;52.92;99859.05;514845;1086;116230;-61
2021/06/16 22:04:35;;;;;;;4.50;3.93;;;;;;;18.95;53.66;99851.08;516039;1087;115847;-60
2021/06/16 22:14:42;;;;;;;4.83;3.63;;;;;;;19.02;53.72;99857.53;515165;1087;116146;-60
2021/06/16 22:24:49;;;;;;;5.08;3.30;;;;;;;18.95;53.85;99868.88;516161;1087;116729;-61
2021/06/16 22:34:56;;;;;;;6.20;3.90;;;;;;;18.85;54.31;99863.57;515712;1087;116626;-61
2021/06/16 22:45:08;;;;;;;4.33;3.67;;;;;;;18.83;54.48;99857.56;515481;1087;116065;-60
2021/06/16 22:55:17;;;;;;;5.83;4.27;;;;;;;18.80;54.15;99861.34;515521;1087;116046;-60
2021/06/16 23:05:24;;;;;;;3.63;3.33;;;;;;;18.74;53.97;99859.28;523087;1088;116334;-60
2021/06/16 23:15:31;;;;;;;5.80;2.90;;;;;;;18.78;53.40;99868.64;520558;1089;116817;-60
2021/06/16 23:25:38;;;;;;;4.27;3.80;;;;;;;18.74;53.20;99869.92;515451;1088;116120;-60
2021/06/16 23:35:45;;;;;;;7.60;3.83;;;;;;;18.68;52.77;99859.84;519111;1088;116429;-60
2021/06/16 23:45:52;;;;;;;4.93;3.30;;;;;;;18.52;53.06;99855.13;522441;1088;116573;-60
2021/06/16 23:55:59;;;;;;;3.87;3.47;;;;;;;18.40;53.21;99852.63;532636;1089;116401;-60
